Joseph, Oregon
Current Conditions -  °F | °C
As of 7:35 AM on Saturday 25 Oct 2014 (Local Time) from KLGD Reporting Station
Overcast Overcast  
Wind Chill: 43°   Ceiling: 100
Heat Index: 43°   Visibility: 0mi
Dew Point: 34°   Wind: 0mph
Humidity: 70%   Direction: NA
Pressure: 29.72"   Gusts: NA
Location:  45.35°N, 117.23°W
Report Text: KLGD 251435Z AUTO 00000KT M1/4SM OVC001 06/01 A2972 RMK AO1
Loading
Personal Weather Stations






























Interactive Weather Map New forecast layout! Learn more

10-Day Weather Forecast

Advertisements
Track Severe Weather on mobile